createdAt,value
2022-08-18T00:02:04.721Z,34.31
2022-08-18T00:04:48.739Z,34.15
2022-08-18T00:07:24.089Z,34.06
2022-08-18T00:09:56.592Z,33.91
2022-08-18T00:12:31.194Z,33.78
2022-08-18T00:15:04.262Z,33.68
2022-08-18T00:22:57.988Z,33.61
2022-08-18T00:25:25.697Z,33.56
2022-08-18T00:27:54.762Z,33.57
2022-08-18T00:30:24.423Z,33.52
2022-08-18T00:32:55.583Z,33.49
2022-08-18T00:35:34.910Z,33.45
2022-08-18T00:38:06.876Z,33.39
2022-08-18T00:45:09.739Z,33.34
2022-08-18T00:47:42.607Z,33.33
2022-08-18T00:50:17.293Z,33.33
2022-08-18T00:52:50.797Z,33.31
2022-08-18T00:55:19.711Z,33.32
2022-08-18T00:57:50.988Z,33.29
2022-08-18T01:00:19.014Z,33.24
2022-08-18T01:08:30.442Z,33.07
2022-08-18T01:11:03.766Z,33.05
2022-08-18T01:13:35.091Z,32.95
2022-08-18T01:16:24.577Z,32.91
2022-08-18T01:19:11.245Z,32.84
2022-08-18T01:21:52.029Z,32.80
2022-08-18T01:29:11.643Z,32.66
2022-08-18T01:31:56.262Z,32.63
2022-08-18T01:34:27.419Z,32.65
2022-08-18T01:36:56.899Z,32.69
2022-08-18T01:41:22.912Z,32.65
2022-08-18T01:42:17.138Z,32.63
2022-08-18T01:44:47.716Z,32.64
2022-08-18T01:54:41.121Z,32.64
2022-08-18T01:57:15.223Z,32.63
2022-08-18T01:59:44.982Z,32.62
2022-08-18T02:02:18.790Z,32.57
2022-08-18T02:04:47.630Z,32.51
2022-08-18T02:07:18.130Z,32.51
2022-08-18T02:09:45.768Z,32.48
2022-08-18T02:16:37.379Z,32.42
2022-08-18T02:19:04.985Z,32.43
2022-08-18T02:21:32.624Z,32.43
2022-08-18T02:24:03.964Z,32.41
2022-08-18T02:26:31.343Z,32.42
2022-08-18T02:28:58.748Z,32.41
2022-08-18T02:31:28.294Z,32.41
2022-08-18T02:36:36.790Z,32.36
2022-08-18T02:39:05.342Z,32.33
2022-08-18T02:41:35.229Z,32.33
2022-08-18T02:44:06.526Z,32.30
2022-08-18T02:46:39.993Z,32.25
2022-08-18T02:49:08.081Z,32.22
2022-08-18T02:51:36.559Z,32.19
2022-08-18T02:59:07.903Z,32.16
2022-08-18T03:01:39.586Z,32.13
2022-08-18T03:04:09.769Z,32.08
2022-08-18T03:06:38.634Z,32.01
2022-08-18T03:09:08.135Z,31.93
2022-08-18T03:11:37.720Z,31.86
2022-08-18T03:14:06.042Z,31.85
2022-08-18T03:24:32.705Z,31.80
2022-08-18T03:27:06.607Z,31.78
2022-08-18T03:29:36.345Z,31.77
2022-08-18T03:32:07.098Z,31.76
2022-08-18T03:34:36.309Z,31.71
2022-08-18T03:37:05.480Z,31.70
2022-08-18T03:39:34.791Z,31.66
2022-08-18T03:47:10.135Z,31.60
2022-08-18T03:49:38.531Z,31.61
2022-08-18T03:52:10.016Z,31.62
2022-08-18T03:54:38.769Z,31.59
2022-08-18T03:57:09.966Z,31.56
2022-08-18T03:59:38.088Z,31.50
2022-08-18T04:02:05.854Z,31.49
2022-08-18T04:07:17.493Z,31.45
2022-08-18T04:09:45.353Z,31.42
2022-08-18T04:12:17.290Z,31.43
2022-08-18T04:14:49.326Z,31.39
2022-08-18T04:17:24.117Z,31.35
2022-08-18T04:19:56.088Z,31.30
2022-08-18T04:22:26.242Z,31.29
2022-08-18T04:27:45.206Z,31.18
2022-08-18T04:30:14.470Z,31.18
2022-08-18T04:32:44.113Z,31.16
2022-08-18T04:35:14.145Z,31.14
2022-08-18T04:37:43.921Z,31.14
2022-08-18T04:40:15.672Z,31.13
2022-08-18T04:42:45.895Z,31.11
2022-08-18T04:49:12.026Z,30.99
2022-08-18T04:52:34.090Z,30.94
2022-08-18T04:54:38.826Z,30.91
2022-08-18T04:57:14.951Z,30.90
2022-08-18T04:59:46.108Z,30.90
2022-08-18T05:02:16.078Z,30.91
2022-08-18T05:07:46.172Z,30.92
2022-08-18T05:10:17.556Z,30.84
2022-08-18T05:12:47.733Z,30.81
2022-08-18T05:15:18.619Z,30.82
2022-08-18T05:17:48.119Z,30.81
2022-08-18T05:20:19.200Z,30.83
2022-08-18T05:22:47.439Z,30.83
2022-08-18T05:25:17.423Z,30.83
2022-08-18T05:32:51.522Z,30.70
2022-08-18T05:35:24.600Z,30.68
2022-08-18T05:38:04.444Z,30.68
2022-08-18T05:40:32.489Z,30.65
2022-08-18T05:43:04.140Z,30.67
2022-08-18T05:45:31.235Z,30.63
2022-08-18T05:48:01.463Z,30.61
2022-08-18T05:55:30.941Z,30.51
2022-08-18T05:58:36.534Z,30.49
2022-08-18T06:01:16.169Z,30.47
2022-08-18T06:03:59.591Z,30.48
2022-08-18T06:06:31.885Z,30.45
2022-08-18T06:09:18.272Z,30.48
2022-08-18T06:16:25.912Z,30.35
2022-08-18T06:19:04.348Z,30.34
2022-08-18T06:21:47.655Z,30.33
2022-08-18T06:24:27.379Z,30.30
2022-08-18T06:27:07.510Z,30.29
2022-08-18T06:29:49.309Z,30.27
2022-08-18T06:35:12.091Z,30.28
2022-08-18T06:38:25.615Z,30.26
2022-08-18T06:41:42.064Z,30.24
2022-08-18T06:44:15.272Z,30.22
2022-08-18T06:46:44.659Z,30.20
2022-08-18T06:49:28.513Z,30.21
2022-08-18T06:57:21.368Z,30.16
2022-08-18T07:00:00.684Z,30.14
2022-08-18T07:02:44.159Z,30.12
2022-08-18T07:05:20.365Z,30.10
2022-08-18T07:08:18.466Z,30.08
2022-08-18T07:11:11.012Z,30.05
2022-08-18T07:16:58.785Z,29.95
2022-08-18T07:19:30.041Z,29.94
2022-08-18T07:22:09.210Z,29.96
2022-08-18T07:24:44.799Z,29.94
2022-08-18T07:27:17.250Z,29.91
2022-08-18T07:30:09.625Z,29.94
2022-08-18T07:40:04.826Z,29.77
2022-08-18T07:43:00.534Z,29.75
2022-08-18T07:45:45.379Z,29.72
2022-08-18T07:51:24.997Z,29.65
2022-08-18T07:54:47.868Z,29.63
2022-08-18T08:02:55.897Z,29.55
2022-08-18T08:05:36.946Z,29.53
2022-08-18T08:08:17.661Z,29.47
2022-08-18T08:11:26.556Z,29.45
2022-08-18T08:14:37.548Z,29.42
2022-08-18T08:17:37.164Z,29.36
2022-08-18T08:23:45.309Z,29.30
2022-08-18T08:26:36.014Z,29.28
2022-08-18T08:29:12.390Z,29.27
2022-08-18T08:31:49.500Z,29.26
2022-08-18T08:34:21.178Z,29.22
2022-08-18T08:37:00.453Z,29.21
2022-08-18T08:39:57.673Z,29.20
2022-08-18T08:50:20.059Z,29.10
2022-08-18T08:53:29.214Z,29.07
2022-08-18T08:56:07.084Z,29.03
2022-08-18T08:58:49.975Z,29.03
2022-08-18T09:01:37.390Z,29.02
2022-08-18T09:04:26.496Z,29.02
2022-08-18T09:12:56.148Z,28.93
2022-08-18T09:15:57.690Z,28.91
2022-08-18T09:18:51.141Z,28.87
2022-08-18T09:21:38.698Z,28.83
2022-08-18T09:24:20.107Z,28.76
2022-08-18T09:26:56.478Z,28.73
2022-08-18T09:32:28.108Z,28.67
2022-08-18T09:35:09.115Z,28.64
2022-08-18T09:37:48.697Z,28.64
2022-08-18T09:41:01.910Z,28.64
2022-08-18T09:43:37.188Z,28.65
2022-08-18T09:46:07.821Z,28.65
2022-08-18T09:48:43.362Z,28.66
2022-08-18T09:56:09.637Z,28.65
2022-08-18T09:59:10.851Z,28.67
2022-08-18T10:01:40.944Z,28.63
2022-08-18T10:04:21.649Z,28.63
2022-08-18T10:06:56.977Z,28.64
2022-08-18T10:09:48.349Z,28.64
2022-08-18T10:12:46.876Z,28.58
2022-08-18T10:21:31.487Z,28.56
2022-08-18T10:24:36.768Z,28.54
2022-08-18T10:26:57.086Z,28.50
2022-08-18T10:29:45.665Z,28.51
2022-08-18T10:32:16.380Z,28.52
2022-08-18T10:34:52.119Z,28.54
2022-08-18T10:42:33.860Z,28.54
2022-08-18T10:45:36.835Z,28.56
2022-08-18T10:48:17.604Z,28.55
2022-08-18T10:50:58.794Z,28.56
2022-08-18T10:53:51.118Z,28.56
2022-08-18T10:56:32.284Z,28.54
2022-08-18T10:59:29.332Z,28.52
2022-08-18T11:07:30.786Z,28.49
2022-08-18T11:10:32.764Z,28.50
2022-08-18T11:13:08.695Z,28.46
2022-08-18T11:15:45.636Z,28.45
2022-08-18T11:18:42.810Z,28.49
2022-08-18T11:27:24.880Z,28.74
2022-08-18T11:29:53.184Z,28.65
2022-08-18T11:35:53.832Z,28.71
2022-08-18T11:38:26.489Z,28.74
2022-08-18T11:41:19.222Z,28.82
2022-08-18T11:43:48.387Z,28.85
2022-08-18T11:52:03.245Z,29.12
2022-08-18T11:54:50.107Z,29.26
2022-08-18T11:57:46.401Z,29.40
2022-08-18T12:00:43.192Z,29.49
2022-08-18T12:03:20.416Z,29.60
2022-08-18T12:05:56.717Z,29.73
2022-08-18T12:13:25.039Z,30.15
2022-08-18T12:16:36.192Z,30.34
2022-08-18T12:19:07.626Z,30.40
2022-08-18T12:21:44.257Z,30.50
2022-08-18T12:24:26.254Z,30.65
2022-08-18T12:27:20.438Z,30.76
2022-08-18T12:34:46.725Z,31.17
2022-08-18T12:37:54.403Z,31.26
2022-08-18T12:40:07.414Z,31.37
2022-08-18T12:42:37.002Z,31.54
2022-08-18T12:45:07.193Z,31.68
2022-08-18T12:47:40.943Z,31.78
2022-08-18T12:52:59.800Z,31.95
2022-08-18T12:55:31.643Z,32.08
2022-08-18T12:57:59.619Z,32.18
2022-08-18T13:00:27.891Z,32.30
2022-08-18T13:02:58.221Z,32.46
2022-08-18T13:05:26.331Z,32.55
2022-08-18T13:08:00.752Z,32.70
2022-08-18T13:18:29.052Z,33.17
2022-08-18T13:20:59.187Z,33.21
2022-08-18T13:23:30.114Z,33.32
2022-08-18T13:26:02.115Z,33.41
2022-08-18T13:28:36.110Z,33.51
2022-08-18T13:31:19.223Z,33.70
2022-08-18T13:33:56.992Z,33.89
2022-08-18T13:42:01.365Z,34.36
2022-08-18T13:44:52.987Z,34.43
2022-08-18T13:47:24.402Z,34.60
2022-08-18T13:49:58.610Z,34.77
2022-08-18T13:52:34.653Z,34.95
2022-08-18T13:55:08.314Z,35.10
2022-08-18T13:57:40.065Z,35.19
2022-08-18T14:03:08.267Z,35.39
2022-08-18T14:05:51.296Z,35.50
2022-08-18T14:08:20.446Z,35.69
2022-08-18T14:10:52.846Z,35.93
2022-08-18T14:13:25.030Z,36.01
2022-08-18T14:15:56.627Z,35.91
2022-08-18T14:24:26.352Z,36.22
2022-08-18T14:26:53.875Z,36.33
2022-08-18T14:29:47.061Z,36.43
2022-08-18T14:32:17.904Z,36.63
2022-08-18T14:34:51.077Z,36.88
2022-08-18T14:37:19.800Z,36.93
2022-08-18T14:39:50.388Z,36.93
2022-08-18T14:45:50.223Z,37.32
2022-08-18T14:48:29.962Z,37.51
2022-08-18T14:51:03.072Z,37.60
2022-08-18T14:53:34.133Z,37.74
2022-08-18T14:56:05.968Z,37.85
2022-08-18T14:58:34.199Z,37.91
2022-08-18T15:01:11.233Z,38.07
2022-08-18T15:08:47.322Z,37.70
2022-08-18T15:11:17.340Z,37.41
2022-08-18T15:13:46.594Z,37.54
2022-08-18T15:16:17.544Z,37.90
2022-08-18T15:18:47.582Z,38.07
2022-08-18T15:21:38.724Z,38.20
2022-08-18T15:27:10.361Z,38.89
2022-08-18T15:29:46.958Z,39.09
2022-08-18T15:32:18.422Z,38.73
2022-08-18T15:34:51.029Z,38.33
2022-08-18T15:37:24.171Z,38.23
2022-08-18T15:40:30.414Z,38.62
2022-08-18T15:48:10.574Z,39.23
2022-08-18T15:50:40.692Z,39.39
2022-08-18T15:53:12.144Z,39.66
2022-08-18T15:55:41.488Z,39.91
2022-08-18T15:58:13.467Z,40.08
2022-08-18T16:00:48.813Z,40.15
2022-08-18T16:03:20.331Z,40.27
2022-08-18T16:05:53.210Z,40.39
2022-08-18T16:13:38.377Z,40.14
2022-08-18T16:16:12.354Z,40.36
2022-08-18T16:18:40.800Z,40.38
2022-08-18T16:21:11.521Z,40.12
2022-08-18T16:23:45.592Z,40.22
2022-08-18T16:26:24.696Z,40.47
2022-08-18T16:35:48.470Z,40.96
2022-08-18T16:38:21.749Z,41.16
2022-08-18T16:40:49.230Z,41.22
2022-08-18T16:43:20.620Z,41.10
2022-08-18T16:45:49.119Z,40.72
2022-08-18T16:48:20.341Z,40.34
2022-08-18T16:50:49.308Z,40.29
2022-08-18T16:56:19.623Z,40.77
2022-08-18T16:59:06.078Z,40.54
2022-08-18T17:01:54.051Z,40.31
2022-08-18T17:04:25.989Z,40.26
2022-08-18T17:06:53.534Z,40.30
2022-08-18T17:09:22.278Z,40.57
2022-08-18T17:11:52.561Z,40.81
2022-08-18T17:19:33.064Z,40.57
2022-08-18T17:22:04.821Z,40.64
2022-08-18T17:24:32.700Z,40.74
2022-08-18T17:27:25.790Z,40.80
2022-08-18T17:30:08.695Z,41.15
2022-08-18T17:33:05.457Z,41.42
2022-08-18T17:35:46.293Z,41.69
2022-08-18T17:46:08.967Z,41.78
2022-08-18T17:48:47.512Z,41.39
2022-08-18T17:51:34.513Z,41.33
2022-08-18T17:54:25.294Z,41.60
2022-08-18T17:57:01.722Z,41.83
2022-08-18T17:59:51.930Z,41.94
2022-08-18T18:07:51.920Z,41.15
2022-08-18T18:13:34.211Z,41.48
2022-08-18T18:16:28.966Z,41.91
2022-08-18T18:19:06.025Z,42.29
2022-08-18T18:22:00.418Z,42.34
2022-08-18T18:29:39.788Z,41.26
2022-08-18T18:32:25.953Z,40.59
2022-08-18T18:35:34.135Z,40.12
2022-08-18T18:38:26.038Z,39.97
2022-08-18T18:41:08.454Z,39.27
2022-08-18T18:43:37.599Z,38.61
2022-08-18T18:51:50.486Z,37.54
2022-08-18T18:54:33.255Z,36.95
2022-08-18T18:57:07.044Z,36.54
2022-08-18T18:59:52.609Z,36.54
2022-08-18T19:02:38.089Z,36.35
2022-08-18T19:05:19.033Z,36.33
2022-08-18T19:13:33.004Z,36.96
2022-08-18T19:16:23.423Z,37.15
2022-08-18T19:19:37.182Z,37.14
2022-08-18T19:22:29.826Z,37.23
2022-08-18T19:25:13.210Z,37.21
2022-08-18T19:27:49.723Z,37.18
2022-08-18T19:33:01.793Z,37.21
2022-08-18T19:35:35.265Z,37.18
2022-08-18T19:38:20.820Z,37.18
2022-08-18T19:40:54.041Z,37.12
2022-08-18T19:43:38.738Z,37.12
2022-08-18T19:46:13.792Z,37.10
2022-08-18T19:53:14.478Z,37.18
2022-08-18T19:56:10.859Z,37.11
2022-08-18T19:59:11.563Z,37.14
2022-08-18T20:01:52.277Z,37.03
2022-08-18T20:04:39.698Z,37.00
2022-08-18T20:07:22.168Z,37.00
2022-08-18T20:18:38.312Z,37.20
2022-08-18T20:21:17.620Z,37.16
2022-08-18T20:24:08.822Z,37.11
2022-08-18T20:26:38.962Z,37.15
2022-08-18T20:29:32.452Z,37.35
2022-08-18T20:32:07.986Z,37.27
2022-08-18T20:34:37.521Z,36.68
2022-08-18T20:42:21.926Z,35.57
2022-08-18T20:44:49.558Z,35.30
2022-08-18T20:47:45.206Z,35.25
2022-08-18T20:50:33.456Z,35.14
2022-08-18T20:53:38.477Z,34.87
2022-08-18T20:56:43.637Z,34.26
2022-08-18T21:04:53.182Z,31.53
2022-08-18T21:07:36.387Z,30.96
2022-08-18T21:10:34.424Z,30.56
2022-08-18T21:13:07.610Z,30.14
2022-08-18T21:15:38.715Z,29.92
2022-08-18T21:18:33.504Z,29.97
2022-08-18T21:23:55.203Z,29.96
2022-08-18T21:26:28.411Z,29.95
2022-08-18T21:29:08.894Z,29.96
2022-08-18T21:31:44.046Z,30.04
2022-08-18T21:34:18.619Z,30.03
2022-08-18T21:36:58.076Z,30.24
2022-08-18T21:42:31.605Z,30.57
2022-08-18T21:45:00.786Z,30.62
2022-08-18T21:47:34.605Z,30.75
2022-08-18T21:50:08.570Z,30.83
2022-08-18T21:52:40.078Z,30.99
2022-08-18T21:55:41.855Z,31.22
2022-08-18T22:02:51.957Z,31.48
2022-08-18T22:05:55.877Z,31.41
2022-08-18T22:08:21.439Z,31.27
2022-08-18T22:11:59.461Z,31.31
2022-08-18T22:14:28.666Z,31.44
2022-08-18T22:17:32.576Z,31.58
2022-08-18T22:23:33.884Z,32.02
2022-08-18T22:26:18.495Z,31.99
2022-08-18T22:29:08.038Z,32.03
2022-08-18T22:31:45.156Z,32.03
2022-08-18T22:34:27.038Z,32.09
2022-08-18T22:37:13.148Z,32.17
2022-08-18T22:39:51.948Z,32.24
2022-08-18T22:47:43.103Z,32.36
2022-08-18T22:50:19.498Z,32.34
2022-08-18T22:52:51.519Z,32.34
2022-08-18T22:55:22.127Z,32.36
2022-08-18T22:57:56.104Z,32.36
2022-08-18T23:00:28.731Z,32.36
2022-08-18T23:02:58.334Z,32.32
2022-08-18T23:09:13.316Z,32.32
2022-08-18T23:11:40.879Z,32.32
2022-08-18T23:14:09.266Z,32.30
2022-08-18T23:16:38.920Z,32.18
2022-08-18T23:19:09.387Z,32.13
2022-08-18T23:21:39.783Z,32.07
2022-08-18T23:24:11.100Z,32.06
2022-08-18T23:31:44.484Z,32.15
2022-08-18T23:34:19.324Z,32.13
2022-08-18T23:36:58.478Z,32.15
2022-08-18T23:39:29.841Z,32.13
2022-08-18T23:42:08.490Z,32.16
2022-08-18T23:44:37.768Z,32.14
2022-08-18T23:47:09.181Z,32.15
2022-08-18T23:54:39.506Z,32.09
2022-08-18T23:57:09.215Z,32.05
2022-08-18T23:59:38.377Z,31.99
